MSC Alexa — 3FPP6 — position and weather

sailwx.info

Track history (hours):
 
Tides and Currents Weather Stations Pressure Air Temp Water Temp Dewpoint Dewpoint Depression Visibility Wind Speed Wind Dir Waves Ship Positions

MSC Alexa

Last reported at 2016-Feb-09 17:33 UTC. Time now 2016-Feb-09 20:39 UTC.
Position N 50°20' W 003°26'.

Length 243 m; draft 10.8 m.

Type: Ship (hazmat cat A). MMSI: 356904000.

Date/timePositionNaut miles runAvg speedWind from/ knotsBaromVisibWave heightAir tempDewpointWater temp
2016-Feb-09 17:33N 50°20' W 003°26'6 6.1
2016-Feb-09 16:33N 50°25' W 003°21'5014.2
2016-Feb-09 13:03N 50°24' W 002°03'816.6
2016-Feb-09 12:33N 50°24' W 001°50'1716.5
2016-Feb-09 11:33N 50°23' W 001°24'1313.1
2016-Feb-09 10:33N 50°23' W 001°04'2210.6
2016-Feb-09 08:27N 50°26' W 000°29'1111.5
2016-Feb-09 07:31N 50°28' W 000°13'1111.2
2016-Feb-09 06:33N 50°31' E 000°04'3812.2
2016-Feb-09 03:26N 50°48' E 000°58'1011.1
2016-Feb-09 02:33N 50°54' E 001°09'10 9.9
2016-Feb-09 01:33N 51°01' E 001°21'8 8.3
2016-Feb-09 00:33N 51°06' E 001°31'8 8.0
2016-Feb-08 23:33N 51°11' E 001°41'9 9.2
2016-Feb-08 22:33N 51°18' E 001°50'10 9.9
2016-Feb-08 21:33N 51°24' E 002°03'1010.5
2016-Feb-08 20:33N 51°21' E 002°18'1111.3
2016-Feb-08 19:34N 51°23' E 002°36'1212.2
2016-Feb-08 18:34N 51°25' E 002°55'1312.7
2016-Feb-08 17:33N 51°25' E 003°16'1312.7
2016-Feb-08 16:33N 51°26' E 003°36'1110.9
2016-Feb-08 15:34N 51°21' E 003°51'8 8.2
2016-Feb-08 14:33N 51°22' E 004°05'8 8.2
2016-Feb-08 13:33N 51°19' E 004°16'1 0.5
2016-Feb-08 11:12N 51°18' E 004°16'0 0.0
2016-Feb-08 10:27N 51°18' E 004°16'0 0.0
2016-Feb-08 09:20N 51°18' E 004°16'0 0.0
2016-Feb-08 08:32N 51°18' E 004°16'0 0.0
2016-Feb-08 07:19N 51°18' E 004°16'0 0.0
2016-Feb-08 06:31N 51°18' E 004°16'0 0.0
2016-Feb-08 05:33N 51°18' E 004°16'0 0.0
2016-Feb-08 04:24N 51°18' E 004°16'0 0.0
2016-Feb-08 03:30N 51°18' E 004°16'0 0.0
2016-Feb-08 02:29N 51°18' E 004°16'0 0.0
2016-Feb-08 01:17N 51°18' E 004°16'0 0.0
2016-Feb-08 00:22N 51°18' E 004°16'1 1.4
2016-Feb-07 23:33N 51°19' E 004°16'2 1.9
2016-Feb-07 22:33N 51°21' E 004°17'1 1.0
2016-Feb-07 21:33N 51°20' E 004°18'1 1.0
2016-Feb-07 20:30N 51°19' E 004°20'0 0.0
2016-Feb-07 19:29N 51°19' E 004°20'0 0.0
2016-Feb-07 18:29N 51°19' E 004°20'0 0.0
2016-Feb-07 17:32N 51°19' E 004°20'0 0.0
2016-Feb-07 16:31N 51°19' E 004°20'0 0.0
2016-Feb-07 15:31N 51°19' E 004°20'0 0.0
2016-Feb-07 14:33N 51°19' E 004°20'0 0.0
2016-Feb-07 13:27N 51°19' E 004°20'0 0.0
2016-Feb-07 12:26N 51°19' E 004°20'0 0.0
2016-Feb-07 11:32N 51°19' E 004°20'0 0.0
2016-Feb-07 10:32N 51°19' E 004°20'0 0.0
2016-Feb-07 09:28N 51°19' E 004°20'0 0.0
2016-Feb-07 08:31N 51°19' E 004°20'0 0.0
2016-Feb-07 07:33N 51°19' E 004°20'0 0.0
2016-Feb-07 06:33N 51°19' E 004°20'0 0.0
2016-Feb-07 05:32N 51°19' E 004°20'0 0.0
2016-Feb-07 04:32N 51°19' E 004°20'0 0.0
2016-Feb-07 03:32N 51°19' E 004°20'0 0.0
2016-Feb-07 02:28N 51°19' E 004°20'0 0.0
2016-Feb-07 01:31N 51°19' E 004°20'0 0.0
2016-Feb-07 00:27N 51°19' E 004°20'0 0.0
2016-Feb-06 23:30N 51°19' E 004°20'0 0.0
2016-Feb-06 22:32N 51°19' E 004°20'0 0.0
2016-Feb-06 21:17N 51°19' E 004°20'0 0.0
2016-Feb-06 20:32N 51°19' E 004°20'0 0.0
2016-Feb-06 19:28N 51°19' E 004°20'0 0.0
2016-Feb-06 18:31N 51°19' E 004°20'0 0.0
2016-Feb-06 17:33N 51°19' E 004°20'0 0.0
2016-Feb-06 16:18N 51°19' E 004°20'0 0.0
2016-Feb-06 15:26N 51°19' E 004°20'0 0.0
2016-Feb-06 14:32N 51°19' E 004°20'0 0.0
2016-Feb-06 13:25N 51°19' E 004°20'0 0.0
2016-Feb-06 12:28N 51°19' E 004°20'0 0.0
2016-Feb-06 11:33N 51°19' E 004°20'2 2.0
2016-Feb-06 10:33N 51°21' E 004°17'0 0.3
2016-Feb-06 09:34N 51°21' E 004°17'6 5.8
2016-Feb-06 08:34N 51°22' E 004°08'7 7.0
2016-Feb-06 07:34N 51°23' E 003°57'9 9.2
2016-Feb-06 06:34N 51°25' E 003°42'1110.8
2016-Feb-06 05:34N 51°25' E 003°25'1211.8
2016-Feb-06 04:33N 51°24' E 003°06'1212.5
2016-Feb-06 03:34N 51°22' E 002°46'10 7.9
2016-Feb-06 02:20N 51°22' E 002°31'6 7.5
2016-Feb-06 01:33N 51°20' E 002°23'9 8.5
2016-Feb-06 00:31N 51°15' E 002°11'9 9.2
2016-Feb-05 23:33N 51°10' E 001°58'10 9.9
2016-Feb-05 22:33N 51°05' E 001°45'1110.8
2016-Feb-05 21:33N 50°57' E 001°33'8111.3
2016-Feb-05 14:24N 49°59' E 000°05'1112.8
2016-Feb-05 13:34N 49°51' W 000°06'1212.3
2016-Feb-05 12:33N 49°39' W 000°07'1313.2
2016-Feb-05 11:33N 49°28' E 000°06'2 2.1
2016-Feb-05 10:32N 49°28' E 000°09'0 0.0
2016-Feb-05 09:32N 49°28' E 000°09'0 0.0
2016-Feb-05 08:32N 49°28' E 000°09'0 0.0
2016-Feb-05 07:31N 49°28' E 000°09'0 0.0
2016-Feb-05 06:31N 49°28' E 000°09'0 0.0
2016-Feb-05 05:33N 49°28' E 000°09'0 0.0
2016-Feb-05 04:30N 49°28' E 000°09'0 0.0
2016-Feb-05 03:32N 49°28' E 000°09'0 0.0
2016-Feb-05 02:32N 49°28' E 000°09'0 0.0
2016-Feb-05 01:32N 49°28' E 000°09'0 0.0
2016-Feb-05 00:31N 49°28' E 000°09'0 0.0
2016-Feb-04 23:31N 49°28' E 000°09'0 0.0
2016-Feb-04 22:33N 49°28' E 000°09'0 0.0
2016-Feb-04 21:33N 49°28' E 000°09'0 0.0
2016-Feb-04 20:32N 49°28' E 000°09'1 0.9
2016-Feb-04 19:33N 49°28' E 000°08'1111.4
2016-Feb-04 18:33N 49°32' W 000°09'5 4.8
2016-Feb-04 17:33N 49°33' W 000°16'6 5.7
2016-Feb-04 16:33N 49°36' W 000°24'20610.1
2016-Feb-03 20:07N 48°21' W 005°16'712.7
2016-Feb-03 19:33N 48°18' W 005°06'1211.8
2016-Feb-03 18:33N 48°17' W 004°49'1212.5
2016-Feb-03 17:33N 48°21' W 004°31'3 2.7
2016-Feb-03 16:32N 48°23' W 004°28'0 0.0
2016-Feb-03 15:32N 48°23' W 004°28'0 0.0
2016-Feb-03 14:31N 48°23' W 004°28'0 0.0
2016-Feb-03 13:31N 48°23' W 004°28'0 0.0
2016-Feb-03 12:30N 48°23' W 004°28'0 0.0
2016-Feb-03 11:33N 48°23' W 004°28'0 0.0
2016-Feb-03 10:33N 48°23' W 004°28'0 0.0
2016-Feb-03 09:32N 48°23' W 004°28'0 0.0
2016-Feb-03 08:32N 48°23' W 004°28'0 0.0
2016-Feb-03 07:31N 48°23' W 004°28'0 0.0
2016-Feb-03 06:31N 48°23' W 004°28'0 0.0
2016-Feb-03 05:33N 48°23' W 004°28'0 0.0
2016-Feb-03 04:33N 48°23' W 004°28'0 0.0
2016-Feb-03 03:33N 48°23' W 004°28'0 0.0
2016-Feb-03 02:32N 48°23' W 004°28'0 0.0
2016-Feb-03 01:32N 48°23' W 004°28'0 0.0
2016-Feb-03 00:31N 48°23' W 004°28'0 0.0
2016-Feb-02 23:31N 48°23' W 004°28'0 0.0
2016-Feb-02 22:33N 48°23' W 004°28'0 0.0
2016-Feb-02 21:33N 48°23' W 004°28'0 0.0
2016-Feb-02 20:32N 48°23' W 004°28'0 0.0
2016-Feb-02 19:32N 48°23' W 004°28'0 0.0
2016-Feb-02 18:29N 48°23' W 004°28'0 0.0
2016-Feb-02 17:31N 48°23' W 004°28'0 0.0
2016-Feb-02 16:31N 48°23' W 004°28'0 0.0
2016-Feb-02 15:33N 48°23' W 004°28'0 0.0
2016-Feb-02 14:33N 48°23' W 004°28'0 0.0
2016-Feb-02 13:32N 48°23' W 004°28'0 0.0
2016-Feb-02 12:32N 48°23' W 004°28'0 0.0
2016-Feb-02 11:32N 48°23' W 004°28'0 0.0
2016-Feb-02 10:31N 48°23' W 004°28'0 0.0
2016-Feb-02 09:31N 48°23' W 004°28'0 0.0
2016-Feb-02 08:33N 48°23' W 004°28'0 0.0
2016-Feb-02 07:33N 48°23' W 004°28'0 0.0
2016-Feb-02 06:32N 48°23' W 004°28'0 0.0
2016-Feb-02 05:32N 48°23' W 004°28'0 0.0
2016-Feb-02 04:32N 48°23' W 004°28'0 0.0
2016-Feb-02 03:31N 48°23' W 004°28'0 0.0
2016-Feb-02 02:31N 48°23' W 004°28'0 0.0
2016-Feb-02 01:33N 48°23' W 004°28'0 0.0
2016-Feb-02 00:33N 48°23' W 004°28'0 0.0
2016-Feb-01 23:32N 48°23' W 004°28'0 0.0
2016-Feb-01 22:32N 48°23' W 004°28'0 0.0
2016-Feb-01 21:32N 48°23' W 004°28'0 0.0
2016-Feb-01 20:28N 48°23' W 004°28'0 0.0
2016-Feb-01 19:31N 48°23' W 004°28'0 0.0
2016-Feb-01 18:33N 48°23' W 004°28'0 0.0
2016-Feb-01 17:33N 48°23' W 004°28'0 0.0
2016-Feb-01 16:32N 48°23' W 004°28'0 0.0
2016-Feb-01 15:32N 48°23' W 004°28'0 0.0
2016-Feb-01 14:32N 48°23' W 004°28'0 0.0
2016-Feb-01 13:33N 48°23' W 004°28'4 4.1
2016-Feb-01 12:33N 48°21' W 004°33'9 9.1
2016-Feb-01 11:33N 48°17' W 004°46'10 9.7
2016-Feb-01 10:33N 48°16' W 005°00'142 9.4
2016-Jan-31 19:32N 50°37' W 005°32'9 9.7
2016-Jan-31 18:33N 50°43' W 005°21'8812.3
2016-Jan-31 11:21N 51°20' W 003°14'910.7
2016-Jan-31 10:33N 51°25' W 003°02'1211.7
2016-Jan-31 09:33N 51°30' W 002°46'1 1.4
2016-Jan-31 08:32N 51°30' W 002°43'0 0.0
2016-Jan-31 07:32N 51°30' W 002°43'0 0.0
2016-Jan-31 06:31N 51°30' W 002°43'0 0.0
2016-Jan-31 05:31N 51°30' W 002°43'0 0.0
2016-Jan-31 04:30N 51°30' W 002°43'0 0.0
2016-Jan-31 03:30N 51°30' W 002°43'0 0.0
2016-Jan-31 02:33N 51°30' W 002°43'0 0.0
2016-Jan-31 01:32N 51°30' W 002°43'0 0.0
2016-Jan-31 00:32N 51°30' W 002°43'0 0.0
2016-Jan-30 23:31N 51°30' W 002°43'0 0.0
2016-Jan-30 22:31N 51°30' W 002°43'0 0.0
2016-Jan-30 21:33N 51°30' W 002°43'0 0.0
2016-Jan-30 20:33N 51°30' W 002°43'0 0.0
2016-Jan-30 19:33N 51°30' W 002°43'0 0.0
2016-Jan-30 18:32N 51°30' W 002°43'  
Track history (hours):
 
Tides and Currents Weather Stations Pressure Air Temp Water Temp Dewpoint Dewpoint Depression Visibility Wind Speed Wind Dir Waves Ship Positions

MSC Alexa

Last reported at 2016-Feb-09 17:33 UTC. Time now 2016-Feb-09 20:39 UTC.
Position N 50°20' W 003°26'.

Length 243 m; draft 10.8 m.

Type: Ship (hazmat cat A). MMSI: 356904000.

Date/timePositionNaut miles runAvg speedWind from/ knotsBaromVisibWave heightAir tempDewpointWater temp
2016-Feb-09 17:33N 50°20' W 003°26'6 6.1
2016-Feb-09 16:33N 50°25' W 003°21'5014.2
2016-Feb-09 13:03N 50°24' W 002°03'816.6
2016-Feb-09 12:33N 50°24' W 001°50'1716.5
2016-Feb-09 11:33N 50°23' W 001°24'1313.1
2016-Feb-09 10:33N 50°23' W 001°04'2210.6
2016-Feb-09 08:27N 50°26' W 000°29'1111.5
2016-Feb-09 07:31N 50°28' W 000°13'1111.2
2016-Feb-09 06:33N 50°31' E 000°04'3812.2
2016-Feb-09 03:26N 50°48' E 000°58'1011.1
2016-Feb-09 02:33N 50°54' E 001°09'10 9.9
2016-Feb-09 01:33N 51°01' E 001°21'8 8.3
2016-Feb-09 00:33N 51°06' E 001°31'8 8.0
2016-Feb-08 23:33N 51°11' E 001°41'9 9.2
2016-Feb-08 22:33N 51°18' E 001°50'10 9.9
2016-Feb-08 21:33N 51°24' E 002°03'1010.5
2016-Feb-08 20:33N 51°21' E 002°18'1111.3
2016-Feb-08 19:34N 51°23' E 002°36'1212.2
2016-Feb-08 18:34N 51°25' E 002°55'1312.7
2016-Feb-08 17:33N 51°25' E 003°16'1312.7
2016-Feb-08 16:33N 51°26' E 003°36'1110.9
2016-Feb-08 15:34N 51°21' E 003°51'8 8.2
2016-Feb-08 14:33N 51°22' E 004°05'8 8.2
2016-Feb-08 13:33N 51°19' E 004°16'1 0.5
2016-Feb-08 11:12N 51°18' E 004°16'0 0.0
2016-Feb-08 10:27N 51°18' E 004°16'0 0.0
2016-Feb-08 09:20N 51°18' E 004°16'0 0.0
2016-Feb-08 08:32N 51°18' E 004°16'0 0.0
2016-Feb-08 07:19N 51°18' E 004°16'0 0.0
2016-Feb-08 06:31N 51°18' E 004°16'0 0.0
2016-Feb-08 05:33N 51°18' E 004°16'0 0.0
2016-Feb-08 04:24N 51°18' E 004°16'0 0.0
2016-Feb-08 03:30N 51°18' E 004°16'0 0.0
2016-Feb-08 02:29N 51°18' E 004°16'0 0.0
2016-Feb-08 01:17N 51°18' E 004°16'0 0.0
2016-Feb-08 00:22N 51°18' E 004°16'1 1.4
2016-Feb-07 23:33N 51°19' E 004°16'2 1.9
2016-Feb-07 22:33N 51°21' E 004°17'1 1.0
2016-Feb-07 21:33N 51°20' E 004°18'1 1.0
2016-Feb-07 20:30N 51°19' E 004°20'0 0.0
2016-Feb-07 19:29N 51°19' E 004°20'0 0.0
2016-Feb-07 18:29N 51°19' E 004°20'0 0.0
2016-Feb-07 17:32N 51°19' E 004°20'0 0.0
2016-Feb-07 16:31N 51°19' E 004°20'0 0.0
2016-Feb-07 15:31N 51°19' E 004°20'0 0.0
2016-Feb-07 14:33N 51°19' E 004°20'0 0.0
2016-Feb-07 13:27N 51°19' E 004°20'0 0.0
2016-Feb-07 12:26N 51°19' E 004°20'0 0.0
2016-Feb-07 11:32N 51°19' E 004°20'0 0.0
2016-Feb-07 10:32N 51°19' E 004°20'0 0.0
2016-Feb-07 09:28N 51°19' E 004°20'0 0.0
2016-Feb-07 08:31N 51°19' E 004°20'0 0.0
2016-Feb-07 07:33N 51°19' E 004°20'0 0.0
2016-Feb-07 06:33N 51°19' E 004°20'0 0.0
2016-Feb-07 05:32N 51°19' E 004°20'0 0.0
2016-Feb-07 04:32N 51°19' E 004°20'0 0.0
2016-Feb-07 03:32N 51°19' E 004°20'0 0.0
2016-Feb-07 02:28N 51°19' E 004°20'0 0.0
2016-Feb-07 01:31N 51°19' E 004°20'0 0.0
2016-Feb-07 00:27N 51°19' E 004°20'0 0.0
2016-Feb-06 23:30N 51°19' E 004°20'0 0.0
2016-Feb-06 22:32N 51°19' E 004°20'0 0.0
2016-Feb-06 21:17N 51°19' E 004°20'0 0.0
2016-Feb-06 20:32N 51°19' E 004°20'0 0.0
2016-Feb-06 19:28N 51°19' E 004°20'0 0.0
2016-Feb-06 18:31N 51°19' E 004°20'0 0.0
2016-Feb-06 17:33N 51°19' E 004°20'0 0.0
2016-Feb-06 16:18N 51°19' E 004°20'0 0.0
2016-Feb-06 15:26N 51°19' E 004°20'0 0.0
2016-Feb-06 14:32N 51°19' E 004°20'0 0.0
2016-Feb-06 13:25N 51°19' E 004°20'0 0.0
2016-Feb-06 12:28N 51°19' E 004°20'0 0.0
2016-Feb-06 11:33N 51°19' E 004°20'2 2.0
2016-Feb-06 10:33N 51°21' E 004°17'0 0.3
2016-Feb-06 09:34N 51°21' E 004°17'6 5.8
2016-Feb-06 08:34N 51°22' E 004°08'7 7.0
2016-Feb-06 07:34N 51°23' E 003°57'9 9.2
2016-Feb-06 06:34N 51°25' E 003°42'1110.8
2016-Feb-06 05:34N 51°25' E 003°25'1211.8
2016-Feb-06 04:33N 51°24' E 003°06'1212.5
2016-Feb-06 03:34N 51°22' E 002°46'10 7.9
2016-Feb-06 02:20N 51°22' E 002°31'6 7.5
2016-Feb-06 01:33N 51°20' E 002°23'9 8.5
2016-Feb-06 00:31N 51°15' E 002°11'9 9.2
2016-Feb-05 23:33N 51°10' E 001°58'10 9.9
2016-Feb-05 22:33N 51°05' E 001°45'1110.8
2016-Feb-05 21:33N 50°57' E 001°33'8111.3
2016-Feb-05 14:24N 49°59' E 000°05'1112.8
2016-Feb-05 13:34N 49°51' W 000°06'1212.3
2016-Feb-05 12:33N 49°39' W 000°07'1313.2
2016-Feb-05 11:33N 49°28' E 000°06'2 2.1
2016-Feb-05 10:32N 49°28' E 000°09'0 0.0
2016-Feb-05 09:32N 49°28' E 000°09'0 0.0
2016-Feb-05 08:32N 49°28' E 000°09'0 0.0
2016-Feb-05 07:31N 49°28' E 000°09'0 0.0
2016-Feb-05 06:31N 49°28' E 000°09'0 0.0
2016-Feb-05 05:33N 49°28' E 000°09'0 0.0
2016-Feb-05 04:30N 49°28' E 000°09'0 0.0
2016-Feb-05 03:32N 49°28' E 000°09'0 0.0
2016-Feb-05 02:32N 49°28' E 000°09'0 0.0
2016-Feb-05 01:32N 49°28' E 000°09'0 0.0
2016-Feb-05 00:31N 49°28' E 000°09'0 0.0
2016-Feb-04 23:31N 49°28' E 000°09'0 0.0
2016-Feb-04 22:33N 49°28' E 000°09'0 0.0
2016-Feb-04 21:33N 49°28' E 000°09'0 0.0
2016-Feb-04 20:32N 49°28' E 000°09'1 0.9
2016-Feb-04 19:33N 49°28' E 000°08'1111.4
2016-Feb-04 18:33N 49°32' W 000°09'5 4.8
2016-Feb-04 17:33N 49°33' W 000°16'6 5.7
2016-Feb-04 16:33N 49°36' W 000°24'20610.1
2016-Feb-03 20:07N 48°21' W 005°16'712.7
2016-Feb-03 19:33N 48°18' W 005°06'1211.8
2016-Feb-03 18:33N 48°17' W 004°49'1212.5
2016-Feb-03 17:33N 48°21' W 004°31'3 2.7
2016-Feb-03 16:32N 48°23' W 004°28'0 0.0
2016-Feb-03 15:32N 48°23' W 004°28'0 0.0
2016-Feb-03 14:31N 48°23' W 004°28'0 0.0
2016-Feb-03 13:31N 48°23' W 004°28'0 0.0
2016-Feb-03 12:30N 48°23' W 004°28'0 0.0
2016-Feb-03 11:33N 48°23' W 004°28'0 0.0
2016-Feb-03 10:33N 48°23' W 004°28'0 0.0
2016-Feb-03 09:32N 48°23' W 004°28'0 0.0
2016-Feb-03 08:32N 48°23' W 004°28'0 0.0
2016-Feb-03 07:31N 48°23' W 004°28'0 0.0
2016-Feb-03 06:31N 48°23' W 004°28'0 0.0
2016-Feb-03 05:33N 48°23' W 004°28'0 0.0
2016-Feb-03 04:33N 48°23' W 004°28'0 0.0
2016-Feb-03 03:33N 48°23' W 004°28'0 0.0
2016-Feb-03 02:32N 48°23' W 004°28'0 0.0
2016-Feb-03 01:32N 48°23' W 004°28'0 0.0
2016-Feb-03 00:31N 48°23' W 004°28'0 0.0
2016-Feb-02 23:31N 48°23' W 004°28'0 0.0
2016-Feb-02 22:33N 48°23' W 004°28'0 0.0
2016-Feb-02 21:33N 48°23' W 004°28'0 0.0
2016-Feb-02 20:32N 48°23' W 004°28'0 0.0
2016-Feb-02 19:32N 48°23' W 004°28'0 0.0
2016-Feb-02 18:29N 48°23' W 004°28'0 0.0
2016-Feb-02 17:31N 48°23' W 004°28'0 0.0
2016-Feb-02 16:31N 48°23' W 004°28'0 0.0
2016-Feb-02 15:33N 48°23' W 004°28'0 0.0
2016-Feb-02 14:33N 48°23' W 004°28'0 0.0
2016-Feb-02 13:32N 48°23' W 004°28'0 0.0
2016-Feb-02 12:32N 48°23' W 004°28'0 0.0
2016-Feb-02 11:32N 48°23' W 004°28'0 0.0
2016-Feb-02 10:31N 48°23' W 004°28'0 0.0
2016-Feb-02 09:31N 48°23' W 004°28'0 0.0
2016-Feb-02 08:33N 48°23' W 004°28'0 0.0
2016-Feb-02 07:33N 48°23' W 004°28'0 0.0
2016-Feb-02 06:32N 48°23' W 004°28'0 0.0
2016-Feb-02 05:32N 48°23' W 004°28'0 0.0
2016-Feb-02 04:32N 48°23' W 004°28'0 0.0
2016-Feb-02 03:31N 48°23' W 004°28'0 0.0
2016-Feb-02 02:31N 48°23' W 004°28'0 0.0
2016-Feb-02 01:33N 48°23' W 004°28'0 0.0
2016-Feb-02 00:33N 48°23' W 004°28'0 0.0
2016-Feb-01 23:32N 48°23' W 004°28'0 0.0
2016-Feb-01 22:32N 48°23' W 004°28'0 0.0
2016-Feb-01 21:32N 48°23' W 004°28'0 0.0
2016-Feb-01 20:28N 48°23' W 004°28'0 0.0
2016-Feb-01 19:31N 48°23' W 004°28'0 0.0
2016-Feb-01 18:33N 48°23' W 004°28'0 0.0
2016-Feb-01 17:33N 48°23' W 004°28'0 0.0
2016-Feb-01 16:32N 48°23' W 004°28'0 0.0
2016-Feb-01 15:32N 48°23' W 004°28'0 0.0
2016-Feb-01 14:32N 48°23' W 004°28'0 0.0
2016-Feb-01 13:33N 48°23' W 004°28'4 4.1
2016-Feb-01 12:33N 48°21' W 004°33'9 9.1
2016-Feb-01 11:33N 48°17' W 004°46'10 9.7
2016-Feb-01 10:33N 48°16' W 005°00'142 9.4
2016-Jan-31 19:32N 50°37' W 005°32'9 9.7
2016-Jan-31 18:33N 50°43' W 005°21'8812.3
2016-Jan-31 11:21N 51°20' W 003°14'910.7
2016-Jan-31 10:33N 51°25' W 003°02'1211.7
2016-Jan-31 09:33N 51°30' W 002°46'1 1.4
2016-Jan-31 08:32N 51°30' W 002°43'0 0.0
2016-Jan-31 07:32N 51°30' W 002°43'0 0.0
2016-Jan-31 06:31N 51°30' W 002°43'0 0.0
2016-Jan-31 05:31N 51°30' W 002°43'0 0.0
2016-Jan-31 04:30N 51°30' W 002°43'0 0.0
2016-Jan-31 03:30N 51°30' W 002°43'0 0.0
2016-Jan-31 02:33N 51°30' W 002°43'0 0.0
2016-Jan-31 01:32N 51°30' W 002°43'0 0.0
2016-Jan-31 00:32N 51°30' W 002°43'0 0.0
2016-Jan-30 23:31N 51°30' W 002°43'0 0.0
2016-Jan-30 22:31N 51°30' W 002°43'0 0.0
2016-Jan-30 21:33N 51°30' W 002°43'0 0.0
2016-Jan-30 20:33N 51°30' W 002°43'0 0.0
2016-Jan-30 19:33N 51°30' W 002°43'0 0.0
2016-Jan-30 18:32N 51°30' W 002°43'  

Dump ship's entire track history